createdAt,value
2018-06-17T00:01:27.195Z,98411.92
2018-06-17T00:03:39.669Z,98412.68
2018-06-17T00:05:52.158Z,98408.88
2018-06-17T00:08:05.112Z,98409.98
2018-06-17T00:10:17.546Z,98418.92
2018-06-17T00:12:30.024Z,98409.93
2018-06-17T00:14:42.405Z,98416.91
2018-06-17T00:16:54.769Z,98422.11
2018-06-17T00:19:07.357Z,98414.77
2018-06-17T00:21:19.709Z,98411.92
2018-06-17T00:23:32.101Z,98414.83
2018-06-17T00:25:44.438Z,98422.30
2018-06-17T00:27:56.851Z,98418.75
2018-06-17T00:30:09.226Z,98416.05
2018-06-17T00:32:21.651Z,98424.01
2018-06-17T00:34:34.011Z,98419.78
2018-06-17T00:36:46.354Z,98419.62
2018-06-17T00:38:58.810Z,98422.13
2018-06-17T00:41:11.188Z,98422.34
2018-06-17T00:43:23.512Z,98420.11
2018-06-17T00:45:35.870Z,98426.30
2018-06-17T00:47:48.206Z,98427.25
2018-06-17T00:50:00.597Z,98424.93
2018-06-17T00:52:13.006Z,98424.28
2018-06-17T00:54:25.326Z,98425.59
2018-06-17T00:56:37.870Z,98431.20
2018-06-17T00:58:50.260Z,98423.61
2018-06-17T01:01:03.053Z,98428.17
2018-06-17T01:03:15.371Z,98433.44
2018-06-17T01:05:27.677Z,98431.42
2018-06-17T01:07:40.221Z,98432.28
2018-06-17T01:09:52.732Z,98439.69
2018-06-17T01:12:05.178Z,98432.13
2018-06-17T01:14:17.497Z,98436.08
2018-06-17T01:16:29.829Z,98435.52
2018-06-17T01:18:42.176Z,98433.99
2018-06-17T01:20:54.806Z,98438.31
2018-06-17T01:23:07.165Z,98439.91
2018-06-17T01:25:19.599Z,98440.52
2018-06-17T01:27:31.991Z,98432.77
2018-06-17T01:29:44.279Z,98444.19
2018-06-17T01:31:56.830Z,98431.73
2018-06-17T01:34:09.195Z,98428.11
2018-06-17T01:36:21.475Z,98433.23
2018-06-17T01:38:33.814Z,98432.28
2018-06-17T01:40:46.206Z,98433.59
2018-06-17T01:42:58.590Z,98434.76
2018-06-17T01:45:10.910Z,98438.37
2018-06-17T01:47:23.297Z,98434.05
2018-06-17T01:49:35.634Z,98434.42
2018-06-17T01:51:47.969Z,98434.42
2018-06-17T01:54:00.483Z,98446.39
2018-06-17T01:56:12.813Z,98439.69
2018-06-17T01:58:25.412Z,98447.09
2018-06-17T02:00:37.778Z,98434.76
2018-06-17T02:02:50.178Z,98439.32
2018-06-17T02:05:08.278Z,98442.81
2018-06-17T02:07:26.317Z,98437.66
2018-06-17T02:09:44.327Z,98439.63
2018-06-17T02:12:02.194Z,98435.68
2018-06-17T02:14:20.137Z,98434.48
2018-06-17T02:16:32.503Z,98438.59
2018-06-17T02:18:44.833Z,98433.59
2018-06-17T02:20:57.170Z,98434.30
2018-06-17T02:23:09.608Z,98436.93
2018-06-17T02:25:21.991Z,98434.84
2018-06-17T02:27:34.302Z,98435.75
2018-06-17T02:29:46.898Z,98431.37
2018-06-17T02:31:59.294Z,98432.98
2018-06-17T02:34:11.611Z,98431.45
2018-06-17T02:36:24.158Z,98428.48
2018-06-17T02:38:36.548Z,98429.09
2018-06-17T02:40:48.983Z,98431.95
2018-06-17T02:43:01.453Z,98435.83
2018-06-17T02:45:19.443Z,98440.16
2018-06-17T02:47:37.478Z,98440.80
2018-06-17T02:49:49.883Z,98444.45
2018-06-17T02:52:08.154Z,98442.36
2018-06-17T02:54:26.284Z,98444.05
2018-06-17T02:56:38.702Z,98453.11
2018-06-17T02:58:51.070Z,98457.05
2018-06-17T03:01:03.502Z,98466.02
2018-06-17T03:03:15.932Z,98470.31
2018-06-17T03:05:28.247Z,98472.67
2018-06-17T03:07:40.574Z,98475.38
2018-06-17T03:09:52.909Z,98472.97
2018-06-17T03:12:05.287Z,98471.99
2018-06-17T03:14:17.678Z,98477.47
2018-06-17T03:16:30.095Z,98473.67
2018-06-17T03:18:42.477Z,98482.73
2018-06-17T03:20:54.801Z,98475.75
2018-06-17T03:23:07.141Z,98479.73
2018-06-17T03:25:25.106Z,98472.75
2018-06-17T03:27:42.962Z,98477.27
2018-06-17T03:30:00.919Z,98477.87
2018-06-17T03:32:18.972Z,98475.24
2018-06-17T03:34:31.475Z,98481.81
2018-06-17T03:36:43.838Z,98485.50
2018-06-17T03:38:56.178Z,98487.78
2018-06-17T03:41:08.811Z,98484.59
2018-06-17T03:43:21.164Z,98479.67
2018-06-17T03:45:33.632Z,98490.41
2018-06-17T03:47:45.954Z,98488.12
2018-06-17T03:49:58.278Z,98495.67
2018-06-17T03:52:10.602Z,98492.75
2018-06-17T03:54:22.970Z,98492.26
2018-06-17T03:56:35.501Z,98489.44
2018-06-17T03:58:47.839Z,98494.32
2018-06-17T04:01:00.221Z,98495.86
2018-06-17T04:03:12.590Z,98503.15
2018-06-17T04:05:27.157Z,98510.74
2018-06-17T04:07:39.546Z,98510.14
2018-06-17T04:09:52.124Z,98505.14
2018-06-17T04:12:04.514Z,98509.77
2018-06-17T04:14:16.948Z,98513.41
2018-06-17T04:16:29.429Z,98522.83
2018-06-17T04:18:41.794Z,98520.13
2018-06-17T04:20:54.183Z,98516.89
2018-06-17T04:23:06.649Z,98514.83
2018-06-17T04:25:19.027Z,98518.77
2018-06-17T04:27:31.403Z,98519.33
2018-06-17T04:29:43.794Z,98522.86
2018-06-17T04:31:56.169Z,98526.20
2018-06-17T04:34:08.557Z,98529.24
2018-06-17T04:36:20.894Z,98524.69
2018-06-17T04:38:34.105Z,98525.09
2018-06-17T04:40:46.414Z,98526.36
2018-06-17T04:42:58.781Z,98528.16
2018-06-17T04:45:11.183Z,98519.84
2018-06-17T04:47:23.495Z,98523.31
2018-06-17T04:49:36.078Z,98528.47
2018-06-17T04:51:48.450Z,98530.83
2018-06-17T04:54:00.763Z,98531.83
2018-06-17T04:56:13.289Z,98527.53
2018-06-17T04:58:25.666Z,98529.94
2018-06-17T05:00:38.016Z,98524.67
2018-06-17T05:02:50.383Z,98531.20
2018-06-17T05:05:02.785Z,98534.17
2018-06-17T05:07:15.194Z,98541.88
2018-06-17T05:09:27.613Z,98548.95
2018-06-17T05:11:40.130Z,98551.47
2018-06-17T05:13:52.490Z,98551.69
2018-06-17T05:16:04.935Z,98554.54
2018-06-17T05:18:17.458Z,98554.38
2018-06-17T05:20:29.997Z,98557.72
2018-06-17T05:22:42.389Z,98555.79
2018-06-17T05:24:54.851Z,98565.62
2018-06-17T05:27:07.226Z,98563.81
2018-06-17T05:29:19.675Z,98563.04
2018-06-17T05:31:32.140Z,98564.36
2018-06-17T05:33:44.575Z,98571.21
2018-06-17T05:35:57.071Z,98564.75
2018-06-17T05:38:09.456Z,98567.05
2018-06-17T05:40:21.877Z,98569.19
2018-06-17T05:42:34.205Z,98575.77
2018-06-17T05:44:46.535Z,98577.02
2018-06-17T05:46:58.985Z,98583.27
2018-06-17T05:49:11.444Z,98579.92
2018-06-17T05:51:23.859Z,98588.20
2018-06-17T05:53:36.387Z,98593.53
2018-06-17T05:55:48.771Z,98591.39
2018-06-17T05:58:01.211Z,98590.26
2018-06-17T06:00:13.734Z,98588.11
2018-06-17T06:02:26.122Z,98593.80
2018-06-17T06:04:38.506Z,98593.09
2018-06-17T06:06:50.877Z,98597.82
2018-06-17T06:09:05.555Z,98589.85
2018-06-17T06:11:17.902Z,98591.44
2018-06-17T06:13:30.337Z,98597.41
2018-06-17T06:15:42.725Z,98603.63
2018-06-17T06:17:55.087Z,98602.80
2018-06-17T06:20:08.590Z,98606.63
2018-06-17T06:22:20.983Z,98607.02
2018-06-17T06:24:33.297Z,98609.60
2018-06-17T06:26:45.643Z,98616.45
2018-06-17T06:28:58.102Z,98614.53
2018-06-17T06:31:10.459Z,98611.45
2018-06-17T06:33:22.866Z,98621.02
2018-06-17T06:35:35.305Z,98616.23
2018-06-17T06:37:47.734Z,98624.06
2018-06-17T06:40:00.386Z,98637.75
2018-06-17T06:42:12.736Z,98634.70
2018-06-17T06:44:25.134Z,98633.36
2018-06-17T06:46:37.675Z,98636.44
2018-06-17T06:48:50.022Z,98639.30
2018-06-17T06:51:02.636Z,98639.81
2018-06-17T06:53:14.875Z,98640.86
2018-06-17T06:55:27.258Z,98645.03
2018-06-17T06:57:39.647Z,98643.20
2018-06-17T06:59:52.150Z,98647.08
2018-06-17T07:02:15.934Z,98644.66
2018-06-17T07:04:39.625Z,98651.75
2018-06-17T07:07:03.516Z,98649.59
2018-06-17T07:09:31.353Z,98647.39
2018-06-17T07:11:43.741Z,98651.07
2018-06-17T07:13:56.107Z,98656.03
2018-06-17T07:16:21.115Z,98663.06
2018-06-17T07:18:36.064Z,98661.25
2018-06-17T07:20:48.351Z,98655.83
2018-06-17T07:23:00.697Z,98657.02
2018-06-17T07:25:29.250Z,98656.44
2018-06-17T07:27:58.600Z,98659.77
2018-06-17T07:30:10.922Z,98664.11
2018-06-17T07:32:23.330Z,98663.21
2018-06-17T07:34:35.652Z,98661.84
2018-06-17T07:36:48.124Z,98661.06
2018-06-17T07:39:08.190Z,98652.92
2018-06-17T07:41:20.534Z,98656.27
2018-06-17T07:43:32.893Z,98656.17
2018-06-17T07:45:45.337Z,98654.34
2018-06-17T07:47:57.919Z,98652.61
2018-06-17T07:50:21.695Z,98653.83
2018-06-17T07:52:45.413Z,98647.75
2018-06-17T07:54:58.054Z,98643.38
2018-06-17T07:57:11.706Z,98648.52
2018-06-17T07:59:24.182Z,98651.97
2018-06-17T08:01:36.577Z,98650.06
2018-06-17T08:03:48.934Z,98648.77
2018-06-17T08:06:01.282Z,98642.97
2018-06-17T08:08:13.656Z,98643.64
2018-06-17T08:10:26.137Z,98641.50
2018-06-17T08:12:38.513Z,98646.96
2018-06-17T08:14:51.021Z,98650.47
2018-06-17T08:17:03.383Z,98645.16
2018-06-17T08:19:15.770Z,98646.33
2018-06-17T08:21:28.130Z,98645.81
2018-06-17T08:23:40.552Z,98645.99
2018-06-17T08:25:52.963Z,98651.47
2018-06-17T08:28:05.457Z,98649.82
2018-06-17T08:30:18.609Z,98650.45
2018-06-17T08:32:37.583Z,98646.14
2018-06-17T08:36:14.245Z,98651.61
2018-06-17T08:38:34.834Z,98648.04
2018-06-17T08:40:54.944Z,98650.69
2018-06-17T08:43:13.324Z,98647.69
2018-06-17T08:45:32.400Z,98644.48
2018-06-17T08:47:47.384Z,98648.70
2018-06-17T08:50:02.617Z,98645.44
2018-06-17T08:52:15.056Z,98645.50
2018-06-17T08:54:27.423Z,98643.68
2018-06-17T08:56:39.816Z,98641.99
2018-06-17T08:58:52.240Z,98647.22
2018-06-17T09:01:04.747Z,98643.84
2018-06-17T09:03:17.457Z,98641.82
2018-06-17T09:05:29.864Z,98635.63
2018-06-17T09:07:42.295Z,98636.32
2018-06-17T09:09:54.890Z,98638.56
2018-06-17T09:12:07.275Z,98634.95
2018-06-17T09:14:19.768Z,98637.72
2018-06-17T09:16:32.210Z,98634.86
2018-06-17T09:18:44.828Z,98638.31
2018-06-17T09:20:57.281Z,98631.52
2018-06-17T09:23:09.769Z,98632.09
2018-06-17T09:25:22.194Z,98625.08
2018-06-17T09:27:34.538Z,98631.00
2018-06-17T09:29:46.941Z,98631.73
2018-06-17T09:31:59.426Z,98622.72
2018-06-17T09:34:11.816Z,98622.77
2018-06-17T09:36:24.250Z,98626.09
2018-06-17T09:38:36.766Z,98629.39
2018-06-17T09:40:49.263Z,98635.05
2018-06-17T09:43:01.721Z,98632.41
2018-06-17T09:45:14.126Z,98631.11
2018-06-17T09:47:26.464Z,98638.15
2018-06-17T09:49:38.920Z,98635.17
2018-06-17T09:51:53.000Z,98633.84
2018-06-17T09:54:06.696Z,98629.80
2018-06-17T09:56:19.399Z,98631.28
2018-06-17T09:58:32.107Z,98629.80
2018-06-17T10:00:45.869Z,98645.78
2018-06-17T10:03:03.276Z,98640.15
2018-06-17T10:05:18.142Z,98646.80
2018-06-17T10:07:31.421Z,98644.12
2018-06-17T10:10:51.672Z,98634.61
2018-06-17T10:13:04.130Z,98635.64
2018-06-17T10:15:16.571Z,98632.25
2018-06-17T10:17:29.002Z,98640.04
2018-06-17T10:19:41.434Z,98635.28
2018-06-17T10:21:53.820Z,98639.03
2018-06-17T10:24:06.206Z,98636.77
2018-06-17T10:26:18.678Z,98635.50
2018-06-17T10:28:32.075Z,98631.02
2018-06-17T10:30:45.736Z,98628.90
2018-06-17T10:32:58.360Z,98617.72
2018-06-17T10:35:10.799Z,98624.38
2018-06-17T10:37:23.224Z,98620.20
2018-06-17T10:39:35.685Z,98613.59
2018-06-17T10:41:48.030Z,98605.02
2018-06-17T10:44:00.531Z,98599.22
2018-06-17T10:46:12.949Z,98599.56
2018-06-17T10:48:25.347Z,98601.97
2018-06-17T10:50:37.902Z,98596.86
2018-06-17T10:52:50.328Z,98599.37
2018-06-17T10:55:02.866Z,98597.87
2018-06-17T10:57:15.269Z,98592.75
2018-06-17T10:59:27.690Z,98598.59
2018-06-17T11:01:40.150Z,98597.01
2018-06-17T11:03:52.570Z,98598.59
2018-06-17T11:06:04.986Z,98599.23
2018-06-17T11:08:17.354Z,98598.77
2018-06-17T11:10:29.769Z,98597.70
2018-06-17T11:12:42.178Z,98594.84
2018-06-17T11:14:54.554Z,98598.01
2018-06-17T11:17:07.010Z,98598.52
2018-06-17T11:19:19.523Z,98599.84
2018-06-17T11:21:32.037Z,98600.85
2018-06-17T11:23:44.399Z,98599.55
2018-06-17T11:25:56.782Z,98598.41
2018-06-17T11:28:09.180Z,98601.06
2018-06-17T11:30:21.571Z,98599.38
2018-06-17T11:32:34.155Z,98602.02
2018-06-17T11:34:46.533Z,98594.36
2018-06-17T11:36:59.181Z,98592.53
2018-06-17T11:39:11.750Z,98589.17
2018-06-17T11:41:24.526Z,98590.84
2018-06-17T11:43:37.426Z,98587.59
2018-06-17T11:45:49.939Z,98590.05
2018-06-17T11:48:02.339Z,98591.08
2018-06-17T11:50:14.677Z,98585.31
2018-06-17T11:52:27.179Z,98585.26
2018-06-17T11:54:39.681Z,98591.50
2018-06-17T11:56:52.045Z,98592.42
2018-06-17T11:59:04.632Z,98588.96
2018-06-17T12:01:17.117Z,98585.26
2018-06-17T12:03:29.700Z,98588.47
2018-06-17T12:05:42.062Z,98586.23
2018-06-17T12:07:54.481Z,98588.91
2018-06-17T12:10:06.925Z,98588.11
2018-06-17T12:12:19.366Z,98585.38
2018-06-17T12:14:31.856Z,98587.64
2018-06-17T12:16:45.432Z,98592.29
2018-06-17T12:18:57.895Z,98594.96
2018-06-17T12:21:10.267Z,98587.52
2018-06-17T12:23:22.837Z,98595.86
2018-06-17T12:25:51.913Z,98599.03
2018-06-17T12:28:05.642Z,98593.91
2018-06-17T12:30:19.879Z,98594.30
2018-06-17T12:32:34.514Z,98588.63
2018-06-17T12:34:46.942Z,98593.16
2018-06-17T12:36:59.383Z,98597.70
2018-06-17T12:39:13.113Z,98598.80
2018-06-17T12:41:25.513Z,98595.91
2018-06-17T12:43:37.973Z,98596.41
2018-06-17T12:45:50.389Z,98601.42
2018-06-17T12:48:03.089Z,98601.97
2018-06-17T12:50:15.557Z,98603.20
2018-06-17T12:52:28.053Z,98604.34
2018-06-17T12:54:40.453Z,98601.02
2018-06-17T12:56:52.890Z,98607.95
2018-06-17T12:59:05.700Z,98609.66
2018-06-17T13:01:18.234Z,98607.42
2018-06-17T13:03:30.639Z,98600.48
2018-06-17T13:05:43.160Z,98600.69
2018-06-17T13:07:55.659Z,98603.53
2018-06-17T13:10:08.192Z,98597.56
2018-06-17T13:12:20.664Z,98592.40
2018-06-17T13:14:33.374Z,98595.56
2018-06-17T13:16:45.802Z,98582.03
2018-06-17T13:18:58.278Z,98578.50
2018-06-17T13:21:11.045Z,98579.43
2018-06-17T13:23:23.491Z,98572.94
2018-06-17T13:25:35.907Z,98574.27
2018-06-17T13:27:48.397Z,98575.59
2018-06-17T13:30:00.813Z,98579.11
2018-06-17T13:32:13.191Z,98578.88
2018-06-17T13:34:25.518Z,98575.18
2018-06-17T13:36:37.915Z,98580.02
2018-06-17T13:38:50.296Z,98579.70
2018-06-17T13:41:02.719Z,98578.50
2018-06-17T13:43:15.191Z,98581.77
2018-06-17T13:45:27.642Z,98575.34
2018-06-17T13:47:40.041Z,98575.13
2018-06-17T13:49:52.541Z,98581.23
2018-06-17T13:52:05.077Z,98577.20
2018-06-17T13:54:17.518Z,98579.58
2018-06-17T13:56:29.913Z,98576.99
2018-06-17T13:58:42.379Z,98581.71
2018-06-17T14:00:54.788Z,98576.45
2018-06-17T14:03:07.207Z,98574.91
2018-06-17T14:05:19.699Z,98572.44
2018-06-17T14:07:32.069Z,98570.27
2018-06-17T14:09:44.470Z,98573.42
2018-06-17T14:11:57.007Z,98574.89
2018-06-17T14:14:09.396Z,98571.33
2018-06-17T14:16:21.818Z,98571.45
2018-06-17T14:18:34.611Z,98571.11
2018-06-17T14:20:47.102Z,98568.57
2018-06-17T14:22:59.534Z,98567.22
2018-06-17T14:25:12.013Z,98569.80
2018-06-17T14:27:24.357Z,98565.58
2018-06-17T14:29:36.753Z,98563.55
2018-06-17T14:31:49.226Z,98570.27
2018-06-17T14:34:01.630Z,98573.03
2018-06-17T14:36:14.035Z,98570.50
2018-06-17T14:38:26.523Z,98576.08
2018-06-17T14:40:44.850Z,98575.80
2018-06-17T14:43:02.898Z,98583.50
2018-06-17T14:45:20.969Z,98579.39
2018-06-17T14:47:39.251Z,98582.25
2018-06-17T14:49:57.327Z,98584.42
2018-06-17T14:52:15.429Z,98589.08
2018-06-17T14:54:27.792Z,98581.25
2018-06-17T14:56:40.208Z,98583.32
2018-06-17T14:58:52.678Z,98576.79
2018-06-17T15:01:05.375Z,98586.22
2018-06-17T15:03:17.776Z,98586.10
2018-06-17T15:05:30.366Z,98590.45
2018-06-17T15:07:42.733Z,98592.26
2018-06-17T15:09:55.287Z,98591.94
2018-06-17T15:12:07.728Z,98592.95
2018-06-17T15:14:20.142Z,98596.30
2018-06-17T15:16:32.603Z,98597.31
2018-06-17T15:18:44.952Z,98599.98
2018-06-17T15:20:57.382Z,98600.32
2018-06-17T15:23:09.850Z,98600.82
2018-06-17T15:25:22.322Z,98602.33
2018-06-17T15:27:34.742Z,98608.62
2018-06-17T15:29:47.150Z,98608.98
2018-06-17T15:32:05.255Z,98600.67
2018-06-17T15:34:23.395Z,98604.34
2018-06-17T15:36:41.376Z,98603.02
2018-06-17T15:38:55.438Z,98606.84
2018-06-17T15:41:13.317Z,98607.49
2018-06-17T15:43:26.141Z,98607.67
2018-06-17T15:45:38.603Z,98603.67
2018-06-17T15:47:51.067Z,98603.03
2018-06-17T15:50:03.511Z,98599.34
2018-06-17T15:52:15.934Z,98599.68
2018-06-17T15:54:28.448Z,98601.17
2018-06-17T15:56:40.876Z,98604.68
2018-06-17T15:58:53.351Z,98606.34
2018-06-17T16:01:06.194Z,98600.22
2018-06-17T16:03:18.562Z,98607.98
2018-06-17T16:05:31.198Z,98605.51
2018-06-17T16:07:43.599Z,98603.53
2018-06-17T16:09:56.021Z,98601.03
2018-06-17T16:12:14.267Z,98605.69
2018-06-17T16:14:32.254Z,98601.36
2018-06-17T16:16:50.326Z,98599.06
2018-06-17T16:19:08.351Z,98601.70
2018-06-17T16:21:20.774Z,98600.05
2018-06-17T16:23:33.526Z,98601.52
2018-06-17T16:25:45.909Z,98605.67
2018-06-17T16:27:58.358Z,98603.52
2018-06-17T16:30:10.750Z,98604.34
2018-06-17T16:32:23.174Z,98599.55
2018-06-17T16:34:35.539Z,98598.89
2018-06-17T16:36:48.032Z,98596.22
2018-06-17T16:39:00.405Z,98605.00
2018-06-17T16:41:12.834Z,98604.67
2018-06-17T16:43:25.311Z,98609.33
2018-06-17T16:45:37.758Z,98607.00
2018-06-17T16:47:50.177Z,98615.47
2018-06-17T16:50:03.091Z,98609.67
2018-06-17T16:52:21.126Z,98612.66
2018-06-17T16:54:39.190Z,98613.46
2018-06-17T16:56:57.070Z,98620.60
2018-06-17T17:01:42.181Z,98624.76
2018-06-17T17:03:54.587Z,98625.41
2018-06-17T17:06:07.014Z,98621.61
2018-06-17T17:08:19.378Z,98623.91
2018-06-17T17:10:32.294Z,98623.08
2018-06-17T17:12:44.658Z,98621.91
2018-06-17T17:14:57.198Z,98625.88
2018-06-17T17:17:09.734Z,98627.56
2018-06-17T17:19:22.334Z,98627.88
2018-06-17T17:21:34.738Z,98624.55
2018-06-17T17:23:47.152Z,98628.53
2018-06-17T17:25:59.645Z,98633.19
2018-06-17T17:28:12.094Z,98633.19
2018-06-17T17:30:24.503Z,98643.15
2018-06-17T17:32:42.483Z,98640.14
2018-06-17T17:35:00.622Z,98641.97
2018-06-17T17:37:18.490Z,98646.13
2018-06-17T17:39:36.495Z,98644.30
2018-06-17T17:41:48.900Z,98646.44
2018-06-17T17:44:01.382Z,98648.59
2018-06-17T17:46:19.412Z,98642.14
2018-06-17T17:48:31.921Z,98642.78
2018-06-17T17:50:44.430Z,98645.63
2018-06-17T17:52:56.822Z,98649.09
2018-06-17T17:55:09.247Z,98654.83
2018-06-17T17:57:21.687Z,98656.65
2018-06-17T17:59:34.368Z,98658.80
2018-06-17T18:01:46.803Z,98658.65
2018-06-17T18:03:59.434Z,98658.92
2018-06-17T18:06:12.019Z,98658.78
2018-06-17T18:08:24.451Z,98659.28
2018-06-17T18:10:36.884Z,98669.20
2018-06-17T18:12:49.275Z,98672.22
2018-06-17T18:15:01.802Z,98674.83
2018-06-17T18:17:14.302Z,98678.48
2018-06-17T18:19:27.131Z,98672.98
2018-06-17T18:21:39.565Z,98681.59
2018-06-17T18:23:52.036Z,98680.42
2018-06-17T18:26:10.095Z,98682.73
2018-06-17T18:28:28.192Z,98681.73
2018-06-17T18:30:46.318Z,98688.53
2018-06-17T18:33:04.387Z,98688.67
2018-06-17T18:36:20.951Z,98690.31
2018-06-17T18:38:33.334Z,98690.96
2018-06-17T18:40:45.822Z,98704.45
2018-06-17T18:42:58.216Z,98695.78
2018-06-17T18:45:10.677Z,98698.67
2018-06-17T18:47:27.169Z,98702.09
2018-06-17T18:49:39.537Z,98704.38
2018-06-17T18:51:51.890Z,98712.47
2018-06-17T18:54:04.256Z,98707.95
2018-06-17T18:56:16.683Z,98714.85
2018-06-17T18:58:29.123Z,98718.55
2018-06-17T19:00:41.542Z,98714.88
2018-06-17T19:02:54.143Z,98718.62
2018-06-17T19:05:06.585Z,98725.23
2018-06-17T19:07:19.055Z,98727.87
2018-06-17T19:09:37.222Z,98730.95
2018-06-17T19:11:55.107Z,98738.49
2018-06-17T19:15:14.811Z,98743.75
2018-06-17T19:17:33.885Z,98753.23
2018-06-17T19:19:46.376Z,98759.47
2018-06-17T19:21:58.817Z,98768.56
2018-06-17T19:24:11.225Z,98764.89
2018-06-17T19:26:23.715Z,98763.69
2018-06-17T19:28:36.098Z,98763.16
2018-06-17T19:30:48.654Z,98763.94
2018-06-17T19:33:01.041Z,98771.34
2018-06-17T19:35:15.292Z,98770.80
2018-06-17T19:37:27.817Z,98776.50
2018-06-17T19:39:40.259Z,98779.31
2018-06-17T19:41:52.679Z,98788.89
2018-06-17T19:44:05.141Z,98790.50
2018-06-17T19:46:17.654Z,98786.70
2018-06-17T19:48:29.922Z,98789.63
2018-06-17T19:50:47.948Z,98790.45
2018-06-17T19:53:05.876Z,98803.00
2018-06-17T19:55:23.937Z,98803.42
2018-06-17T19:57:41.871Z,98807.25
2018-06-17T19:59:59.913Z,98808.53
2018-06-17T20:02:12.290Z,98808.48
2018-06-17T20:04:24.727Z,98806.79
2018-06-17T20:06:37.195Z,98801.45
2018-06-17T20:08:49.562Z,98804.05
2018-06-17T20:11:02.030Z,98801.67
2018-06-17T20:13:14.437Z,98803.27
2018-06-17T20:15:26.811Z,98806.20
2018-06-17T20:17:39.235Z,98804.90
2018-06-17T20:19:51.594Z,98811.70
2018-06-17T20:22:04.086Z,98810.83
2018-06-17T20:24:16.517Z,98818.84
2018-06-17T20:26:29.042Z,98820.67
2018-06-17T20:28:41.542Z,98821.22
2018-06-17T20:30:57.003Z,98818.46
2018-06-17T20:33:15.020Z,98817.55
2018-06-17T20:35:33.002Z,98820.13
2018-06-17T20:37:50.939Z,98828.51
2018-06-17T20:40:09.006Z,98833.84
2018-06-17T20:42:27.013Z,98835.16
2018-06-17T20:44:39.429Z,98841.77
2018-06-17T20:46:51.950Z,98836.40
2018-06-17T20:49:04.495Z,98834.36
2018-06-17T20:51:17.649Z,98840.73
2018-06-17T20:53:30.168Z,98836.06
2018-06-17T20:55:42.645Z,98835.10
2018-06-17T20:57:55.027Z,98839.90
2018-06-17T21:00:08.054Z,98836.42
2018-06-17T21:02:20.534Z,98841.11
2018-06-17T21:04:32.958Z,98842.56
2018-06-17T21:06:45.472Z,98841.88
2018-06-17T21:08:57.891Z,98840.59
2018-06-17T21:11:10.447Z,98844.75
2018-06-17T21:13:22.822Z,98843.76
2018-06-17T21:15:35.179Z,98842.93
2018-06-17T21:17:48.937Z,98844.56
2018-06-17T21:20:06.759Z,98838.67
2018-06-17T21:22:24.966Z,98850.70
2018-06-17T21:24:42.862Z,98845.31
2018-06-17T21:27:00.797Z,98844.88
2018-06-17T21:29:13.203Z,98839.98
2018-06-17T21:31:25.594Z,98847.95
2018-06-17T21:33:37.982Z,98843.72
2018-06-17T21:35:50.392Z,98849.09
2018-06-17T21:38:03.006Z,98852.56
2018-06-17T21:40:15.405Z,98853.75
2018-06-17T21:42:27.896Z,98854.02
2018-06-17T21:44:40.294Z,98854.38
2018-06-17T21:46:52.705Z,98856.84
2018-06-17T21:49:05.188Z,98851.66
2018-06-17T21:51:17.706Z,98853.81
2018-06-17T21:53:30.054Z,98853.25
2018-06-17T21:55:42.488Z,98854.92
2018-06-17T21:57:54.870Z,98856.77
2018-06-17T22:00:08.654Z,98867.73
2018-06-17T22:02:21.192Z,98861.18
2018-06-17T22:04:39.983Z,98865.77
2018-06-17T22:06:52.339Z,98867.36
2018-06-17T22:09:12.690Z,98868.33
2018-06-17T22:11:30.638Z,98875.53
2018-06-17T22:13:48.675Z,98883.70
2018-06-17T22:16:06.639Z,98881.06
2018-06-17T22:18:19.018Z,98881.24
2018-06-17T22:20:31.379Z,98885.61
2018-06-17T22:22:43.742Z,98887.59
2018-06-17T22:24:56.126Z,98883.89
2018-06-17T22:27:08.531Z,98888.79
2018-06-17T22:29:20.946Z,98887.39
2018-06-17T22:31:33.539Z,98889.70
2018-06-17T22:33:45.956Z,98893.80
2018-06-17T22:35:58.321Z,98895.72
2018-06-17T22:38:10.769Z,98887.97
2018-06-17T22:40:23.235Z,98899.21
2018-06-17T22:42:35.847Z,98898.98
2018-06-17T22:44:48.195Z,98898.06
2018-06-17T22:47:00.542Z,98905.88
2018-06-17T22:49:12.912Z,98900.14
2018-06-17T22:51:25.404Z,98900.77
2018-06-17T22:53:49.099Z,98903.89
2018-06-17T22:56:05.893Z,98906.64
2018-06-17T22:58:23.876Z,98913.95
2018-06-17T23:00:41.995Z,98910.49
2018-06-17T23:02:59.972Z,98915.91
2018-06-17T23:05:17.893Z,98921.19
2018-06-17T23:07:35.838Z,98927.67
2018-06-17T23:09:49.563Z,98934.75
2018-06-17T23:12:02.165Z,98928.70
2018-06-17T23:14:14.499Z,98930.86
2018-06-17T23:16:26.898Z,98925.63
2018-06-17T23:18:39.211Z,98930.90
2018-06-17T23:20:51.819Z,98932.42
2018-06-17T23:23:04.199Z,98924.08
2018-06-17T23:25:16.589Z,98926.23
2018-06-17T23:27:29.017Z,98933.05
2018-06-17T23:29:41.378Z,98937.33
2018-06-17T23:31:53.810Z,98939.63
2018-06-17T23:34:06.246Z,98934.61
2018-06-17T23:36:18.703Z,98939.63
2018-06-17T23:38:31.088Z,98940.45
2018-06-17T23:40:43.832Z,98946.80
2018-06-17T23:42:56.343Z,98945.72
2018-06-17T23:45:08.998Z,98943.19
2018-06-17T23:47:26.934Z,98949.56
2018-06-17T23:49:44.957Z,98945.12
2018-06-17T23:52:02.966Z,98950.39
2018-06-17T23:54:20.986Z,98948.73
2018-06-17T23:56:33.414Z,98948.60
2018-06-17T23:58:45.842Z,98952.69
